Time;durP1;ratioP1;P1;durP2;ratioP2;P2;SDS_P1;SDS_P2;PMS_P1;PMS_P2;Temp;Humidity;BMP_temperature;BMP_pressure;BME280_temperature;BME280_humidity;BME280_pressure;Samples;Min_cycle;Max_cycle;Signal;HPM_P1;HPM_P2
2021/01/23 00:02:04;;;;;;;11.23;3.50;;;4.70;92.70;;;;;;5053861;28;20435;-75
2021/01/23 00:04:30;;;;;;;8.75;6.00;;;4.70;92.70;;;;;;5054522;28;20051;-75
2021/01/23 00:06:56;;;;;;;8.77;4.03;;;4.70;92.70;;;;;;5053436;28;20021;-76
2021/01/23 00:09:22;;;;;;;11.40;4.38;;;4.70;92.70;;;;;;5054250;28;20104;-76
2021/01/23 00:11:48;;;;;;;10.00;4.13;;;4.70;92.70;;;;;;5053561;28;20053;-76
2021/01/23 00:14:14;;;;;;;8.30;4.53;;;4.70;92.70;;;;;;5054265;28;20032;-75
2021/01/23 00:16:40;;;;;;;6.15;3.63;;;4.70;92.60;;;;;;5053635;28;20077;-76
2021/01/23 00:19:05;;;;;;;8.82;3.90;;;4.70;92.60;;;;;;5053490;28;20530;-76
2021/01/23 00:21:31;;;;;;;9.68;4.18;;;4.70;92.60;;;;;;5054181;28;20025;-76
2021/01/23 00:23:56;;;;;;;12.48;4.47;;;4.60;92.60;;;;;;5053011;28;20086;-75
2021/01/23 00:26:22;;;;;;;8.50;3.55;;;4.70;92.60;;;;;;5052461;28;20029;-75
2021/01/23 00:28:48;;;;;;;7.57;4.45;;;4.70;92.60;;;;;;5053147;28;20021;-75
2021/01/23 00:31:13;;;;;;;10.23;4.25;;;4.70;92.60;;;;;;5053996;28;20512;-75
2021/01/23 00:33:39;;;;;;;10.05;4.22;;;4.70;92.60;;;;;;5053798;28;20025;-74
2021/01/23 00:36:05;;;;;;;9.98;4.57;;;4.70;92.60;;;;;;5051500;28;20056;-75
2021/01/23 00:38:31;;;;;;;8.82;4.78;;;4.70;92.50;;;;;;5052012;28;20028;-75
2021/01/23 00:40:56;;;;;;;13.55;4.32;;;4.60;92.50;;;;;;5053137;28;20029;-75
2021/01/23 00:43:22;;;;;;;7.65;4.15;;;4.60;92.50;;;;;;5053161;28;20099;-74
2021/01/23 00:45:48;;;;;;;14.88;4.95;;;4.60;92.50;;;;;;5052681;28;20471;-72
2021/01/23 00:48:14;;;;;;;11.27;4.97;;;4.60;92.50;;;;;;5068518;28;20429;-76
2021/01/23 00:50:40;;;;;;;13.75;5.70;;;4.60;92.50;;;;;;5071687;28;20120;-75
2021/01/23 00:53:06;;;;;;;11.82;4.80;;;4.60;92.50;;;;;;5072800;28;20150;-75
2021/01/23 00:55:32;;;;;;;11.30;5.30;;;4.60;92.50;;;;;;5073485;28;20464;-75
2021/01/23 00:57:57;;;;;;;13.15;5.47;;;4.60;92.50;;;;;;5072646;28;20424;-75
2021/01/23 01:00:24;;;;;;;11.90;5.07;;;4.60;92.50;;;;;;5073297;28;20464;-75
2021/01/23 01:02:49;;;;;;;9.23;5.25;;;4.60;92.50;;;;;;5071233;28;20514;-76
2021/01/23 01:05:15;;;;;;;9.57;4.93;;;4.60;92.50;;;;;;5073203;28;20032;-75
2021/01/23 01:07:42;;;;;;;13.02;4.20;;;4.60;92.50;;;;;;5072947;28;20025;-75
2021/01/23 01:10:09;;;;;;;12.60;4.97;;;4.50;92.50;;;;;;5072487;28;20028;-75
2021/01/23 01:12:34;;;;;;;11.40;4.53;;;4.60;92.50;;;;;;5073214;28;20020;-75
2021/01/23 01:15:00;;;;;;;9.77;5.50;;;4.60;92.50;;;;;;5072030;28;20031;-75
2021/01/23 01:17:26;;;;;;;8.52;4.18;;;4.60;92.50;;;;;;5071695;28;20024;-76
2021/01/23 01:19:52;;;;;;;12.02;4.75;;;4.50;92.50;;;;;;5072256;28;20024;-76
2021/01/23 01:22:18;;;;;;;13.43;5.10;;;4.60;92.50;;;;;;5072853;28;20047;-75
2021/01/23 01:24:43;;;;;;;7.57;4.32;;;4.60;92.50;;;;;;5072849;28;20028;-75
2021/01/23 01:27:09;;;;;;;10.95;4.25;;;4.50;92.50;;;;;;5070924;28;20522;-73
2021/01/23 01:29:34;;;;;;;11.02;4.70;;;4.50;92.50;;;;;;5071475;28;20024;-74
2021/01/23 01:32:00;;;;;;;8.80;3.83;;;4.50;92.50;;;;;;5072161;28;20032;-74
2021/01/23 01:34:26;;;;;;;7.70;4.30;;;4.50;92.50;;;;;;5072525;28;20028;-74
2021/01/23 01:36:51;;;;;;;9.05;3.92;;;4.50;92.60;;;;;;5058056;28;20052;-75
2021/01/23 01:39:17;;;;;;;9.35;4.53;;;4.50;92.60;;;;;;5052710;28;20025;-74
2021/01/23 01:41:43;;;;;;;10.13;4.72;;;4.50;92.60;;;;;;5052524;28;20053;-74
2021/01/23 01:44:10;;;;;;;9.52;4.03;;;4.50;92.60;;;;;;5051533;28;20017;-74
2021/01/23 01:46:36;;;;;;;9.95;4.50;;;4.50;92.60;;;;;;5052013;28;20029;-74
2021/01/23 01:49:03;;;;;;;9.48;4.70;;;4.50;92.60;;;;;;5033857;28;20476;-74
2021/01/23 01:51:29;;;;;;;8.02;4.03;;;4.40;92.50;;;;;;5034261;28;20061;-74
2021/01/23 01:53:56;;;;;;;11.65;4.25;;;4.40;92.50;;;;;;5051607;28;20108;-74
2021/01/23 01:56:22;;;;;;;9.88;4.70;;;4.50;92.60;;;;;;5034278;28;20132;-74
2021/01/23 01:58:47;;;;;;;8.68;4.55;;;4.40;92.60;;;;;;5052413;28;20488;-74
2021/01/23 02:01:13;;;;;;;10.73;4.18;;;4.40;92.50;;;;;;5033694;28;20120;-74
2021/01/23 02:03:45;;;;;;;8.13;4.53;;;4.40;92.50;;;;;;5052053;28;20025;-73
2021/01/23 02:06:47;;;;;;;10.55;4.53;;;4.40;92.60;;;;;;5033203;28;20040;-74
2021/01/23 02:09:48;;;;;;;9.38;3.90;;;4.40;92.50;;;;;;5051147;28;20040;-74
2021/01/23 02:12:45;;;;;;;13.07;3.73;;;4.40;92.50;;;;;;5051484;28;20116;-74
2021/01/23 02:15:14;;;;;;;9.43;4.20;;;4.30;92.50;;;;;;5051175;28;20029;-75
2021/01/23 02:17:53;;;;;;;8.63;4.32;;;4.30;92.50;;;;;;5051818;28;20049;-74
2021/01/23 02:20:53;;;;;;;8.27;3.70;;;4.30;92.50;;;;;;5051275;28;20030;-74
2021/01/23 02:23:30;;;;;;;9.50;4.00;;;4.30;92.50;;;;;;5044372;28;20029;-74
2021/01/23 02:26:03;;;;;;;7.03;4.15;;;4.30;92.50;;;;;;5051351;28;20465;-74
2021/01/23 02:29:11;;;;;;;10.77;4.25;;;4.40;92.50;;;;;;5033585;28;20028;-74
2021/01/23 02:32:04;;;;;;;12.20;4.53;;;4.40;92.40;;;;;;5031288;28;20029;-74
2021/01/23 02:34:31;;;;;;;6.60;3.53;;;4.30;92.40;;;;;;5047026;28;20523;-74
2021/01/23 02:36:59;;;;;;;8.23;4.13;;;4.30;92.40;;;;;;5051448;28;20049;-75
2021/01/23 02:39:26;;;;;;;12.80;4.60;;;4.30;92.40;;;;;;5051465;28;20036;-74
2021/01/23 02:41:53;;;;;;;11.18;4.35;;;4.30;92.50;;;;;;5051592;28;20017;-74
2021/01/23 02:44:19;;;;;;;13.77;4.82;;;4.30;92.40;;;;;;5051036;28;20025;-74
2021/01/23 02:46:45;;;;;;;10.70;4.15;;;4.30;92.40;;;;;;5051493;28;20021;-73
2021/01/23 02:49:12;;;;;;;10.48;4.00;;;4.40;92.30;;;;;;5033010;28;20051;-74
2021/01/23 02:51:47;;;;;;;6.88;3.40;;;4.40;92.20;;;;;;5051627;28;20029;-74
2021/01/23 02:54:31;;;;;;;9.07;3.88;;;4.50;92.20;;;;;;5051020;28;20071;-74
2021/01/23 02:57:00;;;;;;;8.82;4.07;;;4.50;92.00;;;;;;5032917;28;20041;-75
2021/01/23 02:59:26;;;;;;;9.38;4.28;;;4.50;92.00;;;;;;5051533;28;20081;-74
2021/01/23 03:01:53;;;;;;;12.68;4.22;;;4.60;92.10;;;;;;5033111;28;20025;-75
2021/01/23 03:04:20;;;;;;;9.45;4.13;;;4.50;92.00;;;;;;5050751;28;20017;-75
2021/01/23 03:06:46;;;;;;;8.55;4.00;;;4.50;92.10;;;;;;5033127;28;20025;-74
2021/01/23 03:09:23;;;;;;;8.73;4.60;;;4.60;92.10;;;;;;5050771;28;20027;-75
2021/01/23 03:11:50;;;;;;;9.15;4.32;;;4.60;92.10;;;;;;5051645;28;20017;-74
2021/01/23 03:14:17;;;;;;;10.35;4.82;;;4.60;92.10;;;;;;5032803;28;20417;-75
2021/01/23 03:16:50;;;;;;;13.48;4.35;;;4.60;92.00;;;;;;5051609;28;20040;-74
2021/01/23 03:19:17;;;;;;;10.90;4.43;;;4.70;92.00;;;;;;5054640;28;20456;-74
2021/01/23 03:21:43;;;;;;;9.77;4.13;;;4.70;92.00;;;;;;5055227;28;20017;-74
2021/01/23 03:24:09;;;;;;;12.93;4.50;;;4.70;92.00;;;;;;5054524;28;20021;-74
2021/01/23 03:26:35;;;;;;;8.80;3.97;;;4.70;91.90;;;;;;5055128;28;20036;-74
2021/01/23 03:29:01;;;;;;;7.93;4.32;;;4.80;91.90;;;;;;5054526;28;20029;-75
2021/01/23 03:31:26;;;;;;;11.85;4.50;;;4.80;91.90;;;;;;5055007;28;20353;-74
2021/01/23 03:33:52;;;;;;;9.85;5.05;;;4.80;91.90;;;;;;5037040;28;20025;-74
2021/01/23 03:36:18;;;;;;;11.00;5.00;;;4.80;91.80;;;;;;5054303;28;20044;-74
2021/01/23 03:38:43;;;;;;;13.52;4.88;;;4.90;91.80;;;;;;5054875;28;20024;-74
2021/01/23 03:41:09;;;;;;;8.45;4.30;;;4.90;91.80;;;;;;5036249;28;20025;-74
2021/01/23 03:43:35;;;;;;;11.85;5.40;;;4.90;91.80;;;;;;5036783;28;20029;-74
2021/01/23 03:46:01;;;;;;;9.65;4.28;;;4.90;91.70;;;;;;5054166;28;20465;-75
2021/01/23 03:48:26;;;;;;;6.20;3.30;;;4.90;91.70;;;;;;5054736;28;20021;-74
2021/01/23 03:50:52;;;;;;;12.07;3.50;;;4.90;91.70;;;;;;5036792;28;20481;-74
2021/01/23 03:53:17;;;;;;;7.07;3.47;;;4.90;91.70;;;;;;5036047;28;20047;-74
2021/01/23 03:55:43;;;;;;;8.55;3.22;;;5.00;91.70;;;;;;5036586;28;20025;-74
2021/01/23 03:58:09;;;;;;;7.35;3.90;;;5.00;91.70;;;;;;5053903;28;20082;-75
2021/01/23 04:00:34;;;;;;;8.45;3.10;;;5.00;91.60;;;;;;5054264;28;20036;-74
2021/01/23 04:03:00;;;;;;;7.93;3.42;;;5.00;91.60;;;;;;5054434;28;20028;-74
2021/01/23 04:05:26;;;;;;;9.93;3.50;;;5.10;91.60;;;;;;5053415;28;20033;-74
2021/01/23 04:07:51;;;;;;;8.30;3.35;;;5.10;91.60;;;;;;5054073;28;20028;-74
2021/01/23 04:10:17;;;;;;;5.38;2.60;;;5.20;91.60;;;;;;5053883;28;20420;-74
2021/01/23 04:12:42;;;;;;;8.60;3.03;;;5.20;91.60;;;;;;5054287;28;20071;-74
2021/01/23 04:15:08;;;;;;;7.32;3.85;;;5.20;91.50;;;;;;5053601;28;20179;-75
2021/01/23 04:17:34;;;;;;;9.57;3.70;;;5.20;91.40;;;;;;5054081;28;20469;-74
2021/01/23 04:20:00;;;;;;;9.45;3.90;;;5.20;91.40;;;;;;5036101;28;20025;-74
2021/01/23 04:22:25;;;;;;;7.55;3.20;;;5.20;91.40;;;;;;5053358;28;20518;-74
2021/01/23 04:24:51;;;;;;;11.15;4.57;;;5.20;91.40;;;;;;5053776;28;20025;-74
2021/01/23 04:27:17;;;;;;;8.32;3.40;;;5.20;91.40;;;;;;5053598;28;20503;-75
2021/01/23 04:29:42;;;;;;;10.63;3.38;;;5.30;91.40;;;;;;5053875;28;20454;-74
2021/01/23 04:32:08;;;;;;;8.45;4.13;;;5.30;91.40;;;;;;5035363;28;20121;-74
2021/01/23 04:34:34;;;;;;;8.73;3.53;;;5.30;91.40;;;;;;5053850;28;20066;-75
2021/01/23 04:36:59;;;;;;;8.30;3.35;;;5.40;91.40;;;;;;5053313;28;20102;-74
2021/01/23 04:39:25;;;;;;;9.18;3.67;;;5.30;91.30;;;;;;5053151;28;20031;-75
2021/01/23 04:41:51;;;;;;;7.60;3.78;;;5.30;91.30;;;;;;5053853;28;20381;-74
2021/01/23 04:44:16;;;;;;;8.57;3.53;;;5.40;91.40;;;;;;5053059;28;20423;-74
2021/01/23 04:46:42;;;;;;;8.60;3.10;;;5.40;91.40;;;;;;5053562;28;20099;-75
2021/01/23 04:49:08;;;;;;;9.35;3.70;;;5.40;91.40;;;;;;5035071;28;20404;-75
2021/01/23 04:51:33;;;;;;;8.18;3.30;;;5.40;91.30;;;;;;5053444;28;20034;-74
2021/01/23 04:53:59;;;;;;;3.58;2.42;;;5.40;91.30;;;;;;5053469;28;20021;-75
2021/01/23 04:56:27;;;;;;;8.88;3.05;;;5.40;91.40;;;;;;5034802;28;20029;-74
2021/01/23 04:58:53;;;;;;;4.88;2.13;;;5.40;91.30;;;;;;5035315;28;20025;-74
2021/01/23 05:01:19;;;;;;;13.43;4.43;;;5.40;91.30;;;;;;5052499;28;20067;-75
2021/01/23 05:03:58;;;;;;;9.05;3.40;;;5.40;91.30;;;;;;5053271;28;20384;-74
2021/01/23 05:06:25;;;;;;;7.95;3.65;;;5.40;91.30;;;;;;5052834;28;20483;-74
2021/01/23 05:08:51;;;;;;;5.40;2.38;;;5.40;91.30;;;;;;5053035;28;20044;-75
2021/01/23 05:11:17;;;;;;;11.88;3.70;;;5.30;91.30;;;;;;5052455;28;20032;-75
2021/01/23 05:14:08;;;;;;;6.88;3.42;;;5.30;91.30;;;;;;5053237;28;20032;-74
2021/01/23 05:16:34;;;;;;;7.25;3.13;;;5.40;91.30;;;;;;5035106;28;20028;-74
2021/01/23 05:19:02;;;;;;;7.75;3.00;;;5.30;91.30;;;;;;5052940;28;20040;-74
2021/01/23 05:21:31;;;;;;;6.80;3.00;;;5.30;91.20;;;;;;5052400;28;20033;-74
2021/01/23 05:24:12;;;;;;;5.82;3.15;;;5.30;91.20;;;;;;5052866;28;20029;-74
2021/01/23 05:26:39;;;;;;;7.43;2.60;;;5.20;91.50;;;;;;5052631;28;20516;-74
2021/01/23 05:29:11;;;;;;;11.93;3.65;;;5.20;91.30;;;;;;5052775;28;20472;-74
2021/01/23 05:31:38;;;;;;;6.13;3.03;;;5.10;91.40;;;;;;5052714;28;20029;-74
2021/01/23 05:34:26;;;;;;;9.20;3.80;;;5.10;91.40;;;;;;5052720;28;20020;-74
2021/01/23 05:36:52;;;;;;;7.53;3.35;;;5.20;91.40;;;;;;5052817;28;20378;-74
2021/01/23 05:39:18;;;;;;;7.85;3.20;;;5.20;91.30;;;;;;5033978;28;20055;-74
2021/01/23 05:42:05;;;;;;;10.60;3.97;;;5.20;91.30;;;;;;5052072;28;20428;-74
2021/01/23 05:44:31;;;;;;;9.95;4.45;;;5.10;91.30;;;;;;5051978;28;20092;-74
2021/01/23 05:46:57;;;;;;;9.95;3.78;;;5.10;91.40;;;;;;5052470;28;20033;-74
2021/01/23 05:49:23;;;;;;;8.88;3.75;;;5.20;91.40;;;;;;5051591;28;20078;-74
2021/01/23 05:51:49;;;;;;;11.40;4.97;;;5.20;91.40;;;;;;5052352;28;20021;-74
2021/01/23 05:54:15;;;;;;;11.00;3.78;;;5.20;91.40;;;;;;5051776;28;20100;-74
2021/01/23 05:56:41;;;;;;;10.02;3.65;;;5.20;91.40;;;;;;5034398;28;20143;-74
2021/01/23 05:59:07;;;;;;;11.10;3.67;;;5.20;91.30;;;;;;5034401;28;20092;-74
2021/01/23 06:01:33;;;;;;;8.18;3.35;;;5.20;91.40;;;;;;5039286;28;20022;-74
2021/01/23 06:04:00;;;;;;;8.45;3.38;;;5.20;91.50;;;;;;5032274;28;20052;-74
2021/01/23 06:06:42;;;;;;;10.10;3.92;;;5.20;91.40;;;;;;5031750;28;20083;-74
2021/01/23 06:09:07;;;;;;;6.63;3.22;;;5.30;91.40;;;;;;5032251;28;20461;-74
2021/01/23 06:11:33;;;;;;;7.53;3.05;;;5.30;91.30;;;;;;5013820;28;20052;-74
2021/01/23 06:13:58;;;;;;;6.97;2.95;;;5.30;91.30;;;;;;5032254;28;20021;-75
2021/01/23 06:16:33;;;;;;;10.52;3.13;;;5.40;91.30;;;;;;5031481;28;20080;-74
2021/01/23 06:19:05;;;;;;;13.10;3.55;;;5.40;91.30;;;;;;5014085;28;20033;-75
2021/01/23 06:21:43;;;;;;;7.03;3.25;;;5.40;91.30;;;;;;5013701;28;20382;-75
2021/01/23 06:24:09;;;;;;;11.40;3.42;;;5.30;91.30;;;;;;5014279;28;20070;-75
2021/01/23 06:26:56;;;;;;;6.57;3.20;;;5.30;91.40;;;;;;5031315;28;20029;-75
2021/01/23 06:29:57;;;;;;;9.50;4.22;;;5.20;91.40;;;;;;5014613;28;20073;-76
2021/01/23 06:32:23;;;;;;;9.50;3.27;;;5.30;91.40;;;;;;4932088;29;20032;-75
2021/01/23 06:34:58;;;;;;;8.48;4.28;;;5.30;91.40;;;;;;5010760;28;20500;-75
2021/01/23 06:37:37;;;;;;;9.80;3.72;;;5.30;91.40;;;;;;5030755;28;20107;-75
2021/01/23 06:40:10;;;;;;;12.35;3.90;;;5.30;91.40;;;;;;5031546;28;20024;-75
2021/01/23 06:42:47;;;;;;;10.07;4.88;;;5.40;91.40;;;;;;5013429;28;20132;-75
2021/01/23 06:45:19;;;;;;;7.78;3.33;;;5.40;91.30;;;;;;5032142;28;20111;-75
2021/01/23 06:47:46;;;;;;;;;;;5.40;91.30;;;;;;5032311;28;20025;-75
2021/01/23 06:50:12;;;;;;;12.43;4.50;;;5.40;91.20;;;;;;5031788;28;19905;-75
2021/01/23 06:52:49;;;;;;;9.25;3.38;;;5.40;91.20;;;;;;5033744;28;20091;-75
2021/01/23 06:55:16;;;;;;;10.45;3.40;;;5.50;91.20;;;;;;5017259;28;20478;-75
2021/01/23 06:57:46;;;;;;;10.82;4.70;;;5.40;91.10;;;;;;5017959;28;20022;-75
2021/01/23 07:00:13;;;;;;;7.63;3.25;;;5.50;91.10;;;;;;5035685;28;20034;-75
2021/01/23 07:02:39;;;;;;;9.48;3.75;;;5.50;91.10;;;;;;5035129;28;20018;-75
2021/01/23 07:05:09;;;;;;;7.50;3.50;;;5.40;91.10;;;;;;5035593;28;20037;-75
2021/01/23 07:07:39;;;;;;;10.18;3.70;;;5.50;91.10;;;;;;5034674;28;20362;-75
2021/01/23 07:10:14;;;;;;;8.35;3.58;;;5.50;91.20;;;;;;5035540;28;20056;-74
2021/01/23 07:12:43;;;;;;;7.40;3.17;;;5.50;91.10;;;;;;5035125;28;20026;-74
2021/01/23 07:15:29;;;;;;;12.20;4.03;;;5.50;91.10;;;;;;5043681;28;20124;-75
2021/01/23 07:17:54;;;;;;;9.80;4.22;;;5.50;91.10;;;;;;5021176;28;20045;-75
2021/01/23 07:20:20;;;;;;;9.02;3.63;;;5.50;91.10;;;;;;5034513;28;20021;-74
2021/01/23 07:22:46;;;;;;;10.05;3.60;;;5.50;91.00;;;;;;5034550;28;20116;-74
2021/01/23 07:25:16;;;;;;;10.23;4.38;;;5.50;91.00;;;;;;5035197;28;20132;-74
2021/01/23 07:27:43;;;;;;;7.10;3.72;;;5.50;90.90;;;;;;5035181;28;20021;-74
2021/01/23 07:30:11;;;;;;;7.07;3.10;;;5.60;90.90;;;;;;5035078;28;20476;-74
2021/01/23 07:32:40;;;;;;;12.10;4.38;;;5.60;90.90;;;;;;5034545;28;20025;-75
2021/01/23 07:35:09;;;;;;;8.25;2.88;;;5.60;90.90;;;;;;5034967;28;20036;-73
2021/01/23 07:37:51;;;;;;;11.70;4.43;;;5.60;90.90;;;;;;5052438;28;20480;-74
2021/01/23 07:40:27;;;;;;;8.23;3.33;;;5.60;90.90;;;;;;5054836;28;20068;-74
2021/01/23 07:43:02;;;;;;;6.22;3.25;;;5.50;90.90;;;;;;5054902;28;20021;-74
2021/01/23 07:45:28;;;;;;;13.07;4.00;;;5.50;91.00;;;;;;5054049;28;20036;-74
2021/01/23 07:48:05;;;;;;;8.75;3.83;;;5.50;91.00;;;;;;5054666;28;20108;-74
2021/01/23 07:50:42;;;;;;;9.63;3.95;;;5.50;91.00;;;;;;5054077;28;20028;-75
2021/01/23 07:53:18;;;;;;;9.20;4.30;;;5.50;91.00;;;;;;5054679;28;20021;-74
2021/01/23 07:55:45;;;;;;;8.30;3.67;;;5.50;91.00;;;;;;5052665;28;20032;-74
2021/01/23 07:58:13;;;;;;;9.68;3.50;;;5.40;91.10;;;;;;5054308;28;20025;-74
2021/01/23 08:00:40;;;;;;;8.82;3.90;;;5.30;91.20;;;;;;5052463;28;20107;-74
2021/01/23 08:03:06;;;;;;;14.38;5.15;;;5.30;91.40;;;;;;5053715;28;20520;-73
2021/01/23 08:05:48;;;;;;;12.60;4.10;;;5.30;91.40;;;;;;5052437;28;20035;-74
2021/01/23 08:08:35;;;;;;;10.15;3.83;;;5.20;91.50;;;;;;5054392;28;20025;-75
2021/01/23 08:11:03;;;;;;;8.13;3.58;;;5.20;91.50;;;;;;5054456;28;20366;-75
2021/01/23 08:13:30;;;;;;;8.88;3.83;;;5.20;91.50;;;;;;5053729;28;20021;-75
2021/01/23 08:16:13;;;;;;;11.90;3.97;;;5.30;91.60;;;;;;5054242;28;20036;-75
2021/01/23 08:18:40;;;;;;;8.23;3.03;;;5.30;91.50;;;;;;5052110;28;20478;-75
2021/01/23 08:21:16;;;;;;;7.65;3.08;;;5.30;91.50;;;;;;5052695;28;20032;-75
2021/01/23 08:23:41;;;;;;;8.32;3.47;;;5.40;91.40;;;;;;5053311;28;20487;-75
2021/01/23 08:26:07;;;;;;;7.70;4.75;;;5.40;91.30;;;;;;5053550;28;20029;-76
2021/01/23 08:28:32;;;;;;;10.43;4.25;;;5.40;91.10;;;;;;5051481;28;20028;-76
2021/01/23 08:31:22;;;;;;;7.70;3.72;;;5.50;91.10;;;;;;5052156;28;20075;-75
2021/01/23 08:33:56;;;;;;;7.88;3.10;;;5.60;91.10;;;;;;5053531;28;20104;-75
2021/01/23 08:36:23;;;;;;;10.07;3.78;;;5.60;91.10;;;;;;5043934;28;20492;-75
2021/01/23 08:39:04;;;;;;;8.95;3.38;;;5.60;91.10;;;;;;5033921;28;20029;-75
2021/01/23 08:41:30;;;;;;;9.90;3.83;;;5.60;91.10;;;;;;5015347;28;20022;-75
2021/01/23 08:43:56;;;;;;;6.05;3.55;;;5.50;91.10;;;;;;5015860;28;20044;-75
2021/01/23 08:46:22;;;;;;;6.82;2.88;;;5.50;91.20;;;;;;5033737;28;20026;-75
2021/01/23 08:48:49;;;;;;;6.50;3.22;;;5.40;91.30;;;;;;5033079;28;20026;-74
2021/01/23 08:51:15;;;;;;;10.15;3.60;;;5.50;91.40;;;;;;5015880;28;20451;-74
2021/01/23 08:53:41;;;;;;;7.82;3.83;;;5.50;91.40;;;;;;5032768;28;20484;-74
2021/01/23 08:56:07;;;;;;;11.32;3.90;;;5.50;91.40;;;;;;5033446;28;20095;-74
2021/01/23 08:58:33;;;;;;;8.50;3.42;;;5.50;91.40;;;;;;5015039;28;20461;-75
2021/01/23 09:00:58;;;;;;;6.10;2.85;;;5.50;91.40;;;;;;5015612;28;20021;-74
2021/01/23 09:03:25;;;;;;;7.00;3.15;;;5.50;91.40;;;;;;5033042;28;20033;-75
2021/01/23 09:05:51;;;;;;;9.48;3.40;;;5.50;91.40;;;;;;5015101;28;20034;-74
2021/01/23 09:08:16;;;;;;;10.15;3.10;;;5.50;91.40;;;;;;5033329;28;20021;-75
2021/01/23 09:10:42;;;;;;;8.60;4.00;;;5.50;91.50;;;;;;5014796;28;20116;-76
2021/01/23 09:13:07;;;;;;;7.95;2.90;;;5.40;91.40;;;;;;5032704;28;20047;-76
2021/01/23 09:15:33;;;;;;;5.28;2.53;;;5.40;91.40;;;;;;5031044;28;20025;-76
2021/01/23 09:17:59;;;;;;;6.30;3.25;;;5.40;91.30;;;;;;5032958;28;20018;-76
2021/01/23 09:20:25;;;;;;;6.72;2.95;;;5.40;91.30;;;;;;5015283;28;20068;-76
2021/01/23 09:22:51;;;;;;;8.55;4.10;;;5.40;91.30;;;;;;5015093;28;20022;-76
2021/01/23 09:25:19;;;;;;;6.18;3.60;;;5.40;91.30;;;;;;5032872;28;20369;-75
2021/01/23 09:27:45;;;;;;;5.90;3.17;;;5.50;91.30;;;;;;5032061;28;20025;-76
2021/01/23 09:30:11;;;;;;;6.78;3.20;;;5.50;91.20;;;;;;5032898;28;20081;-76
2021/01/23 09:32:37;;;;;;;8.77;3.25;;;5.50;91.20;;;;;;5032372;28;20091;-76
2021/01/23 09:35:03;;;;;;;11.05;3.42;;;5.50;91.20;;;;;;5032335;28;20461;-76
2021/01/23 09:37:30;;;;;;;8.18;3.08;;;5.60;91.20;;;;;;5048570;28;20124;-75
2021/01/23 09:39:56;;;;;;;8.15;3.75;;;5.60;91.20;;;;;;5052346;28;20474;-76
2021/01/23 09:42:21;;;;;;;7.47;3.35;;;5.60;91.10;;;;;;5052614;28;20017;-75
2021/01/23 09:44:47;;;;;;;6.10;3.53;;;5.60;91.10;;;;;;5050483;28;20323;-75
2021/01/23 09:47:14;;;;;;;7.70;3.50;;;5.60;91.00;;;;;;5050958;28;20102;-75
2021/01/23 09:49:40;;;;;;;5.55;2.78;;;5.70;91.00;;;;;;5050284;28;20076;-76
2021/01/23 09:52:06;;;;;;;9.15;3.47;;;5.70;91.00;;;;;;5051174;28;20048;-74
2021/01/23 09:54:31;;;;;;;6.47;3.45;;;5.70;91.00;;;;;;5051733;28;20028;-74
2021/01/23 09:56:57;;;;;;;6.47;3.60;;;5.80;91.00;;;;;;5050815;28;20032;-74
2021/01/23 09:59:23;;;;;;;6.50;3.33;;;5.80;90.90;;;;;;5052227;28;20021;-74
2021/01/23 10:01:48;;;;;;;6.45;2.50;;;5.80;90.80;;;;;;5051240;28;20500;-74
2021/01/23 10:04:14;;;;;;;5.82;2.95;;;5.80;90.80;;;;;;5052621;28;20113;-74
2021/01/23 10:06:39;;;;;;;6.63;3.13;;;5.90;90.70;;;;;;5049953;28;20071;-75
2021/01/23 10:09:05;;;;;;;4.55;2.42;;;5.90;90.70;;;;;;5052077;28;20025;-75
2021/01/23 10:11:31;;;;;;;7.45;3.13;;;5.90;90.70;;;;;;5051798;28;20025;-76
2021/01/23 10:13:56;;;;;;;8.75;2.78;;;6.00;90.70;;;;;;5052054;28;20510;-75
2021/01/23 10:16:22;;;;;;;7.00;2.67;;;6.00;90.60;;;;;;5051840;28;20040;-75
2021/01/23 10:18:48;;;;;;;6.75;2.78;;;6.00;90.60;;;;;;5051502;28;20020;-75
2021/01/23 10:21:13;;;;;;;4.47;3.05;;;6.10;90.60;;;;;;5051790;28;20021;-74
2021/01/23 10:23:39;;;;;;;4.70;2.88;;;6.10;90.60;;;;;;5051110;28;20199;-76
2021/01/23 10:26:04;;;;;;;6.50;2.70;;;6.20;90.40;;;;;;5050102;28;20420;-74
2021/01/23 10:28:30;;;;;;;4.75;2.13;;;6.20;90.40;;;;;;5050390;28;20020;-75
2021/01/23 10:30:56;;;;;;;4.95;2.17;;;6.30;90.20;;;;;;5051456;28;20029;-75
2021/01/23 10:33:22;;;;;;;5.80;2.47;;;6.40;90.10;;;;;;5051623;28;20025;-75
2021/01/23 10:35:48;;;;;;;12.93;2.90;;;6.50;90.00;;;;;;5049041;28;20106;-75
2021/01/23 10:38:14;;;;;;;4.50;2.95;;;6.60;89.50;;;;;;5051478;28;20121;-73
2021/01/23 10:40:43;;;;;;;4.47;2.25;;;6.70;88.90;;;;;;5049409;28;20094;-75
2021/01/23 10:43:09;;;;;;;6.55;2.63;;;6.80;88.20;;;;;;5050192;28;20044;-74
2021/01/23 10:45:35;;;;;;;8.05;3.20;;;6.90;87.90;;;;;;5050981;28;20491;-73
2021/01/23 10:48:00;;;;;;;5.35;2.15;;;7.10;87.70;;;;;;5051603;28;20059;-74
2021/01/23 10:50:26;;;;;;;7.47;2.45;;;7.10;87.20;;;;;;5051577;28;20036;-75
2021/01/23 10:52:53;;;;;;;7.22;3.40;;;7.20;87.00;;;;;;5049257;28;20028;-77
2021/01/23 10:55:18;;;;;;;4.18;2.13;;;7.20;86.90;;;;;;5050119;28;20131;-75
2021/01/23 10:57:44;;;;;;;3.28;1.90;;;7.20;86.80;;;;;;5049517;28;20021;-75
2021/01/23 11:00:10;;;;;;;4.72;2.17;;;7.30;86.90;;;;;;5050315;28;20448;-75
2021/01/23 11:02:40;;;;;;;3.55;1.88;;;7.30;86.50;;;;;;5050822;28;20059;-75
2021/01/23 11:05:10;;;;;;;4.53;2.00;;;7.40;86.30;;;;;;5050067;28;20069;-75
2021/01/23 11:07:35;;;;;;;5.22;2.25;;;7.40;86.30;;;;;;5051099;28;20073;-76
2021/01/23 11:10:01;;;;;;;3.00;1.73;;;7.40;86.30;;;;;;5051465;28;20029;-75
2021/01/23 11:12:27;;;;;;;3.50;1.88;;;7.30;85.80;;;;;;5050134;28;20056;-75
2021/01/23 11:14:52;;;;;;;4.70;2.35;;;7.40;85.70;;;;;;5049266;28;20457;-78
2021/01/23 11:17:38;;;;;;;4.32;2.15;;;7.30;84.90;;;;;;5051264;28;20047;-74
2021/01/23 11:20:05;;;;;;;5.13;2.13;;;7.30;83.20;;;;;;5051286;28;20078;-75
2021/01/23 11:22:31;;;;;;;5.22;1.98;;;7.30;83.90;;;;;;5051567;28;20082;-74
2021/01/23 11:24:57;;;;;;;3.92;2.17;;;7.40;83.50;;;;;;5049406;28;20482;-75
2021/01/23 11:27:22;;;;;;;5.13;1.90;;;7.40;83.40;;;;;;5050940;28;20028;-74
2021/01/23 11:29:48;;;;;;;2.90;1.67;;;7.50;83.50;;;;;;5050422;28;20083;-75
2021/01/23 11:32:14;;;;;;;4.45;2.05;;;7.50;83.50;;;;;;5051137;28;20067;-75
2021/01/23 11:34:39;;;;;;;3.35;1.88;;;7.50;83.50;;;;;;5050313;28;20017;-75
2021/01/23 11:37:05;;;;;;;4.35;2.50;;;7.50;83.20;;;;;;5049539;28;20075;-74
2021/01/23 11:39:31;;;;;;;3.30;1.88;;;7.50;83.30;;;;;;5053328;28;20033;-74
2021/01/23 11:41:56;;;;;;;5.45;1.95;;;7.50;83.30;;;;;;5054161;28;20485;-73
2021/01/23 11:44:22;;;;;;;3.22;2.00;;;7.50;83.50;;;;;;5054824;28;20170;-74
2021/01/23 11:46:48;;;;;;;3.05;1.60;;;7.40;83.10;;;;;;5053843;28;20070;-74
2021/01/23 11:49:13;;;;;;;3.95;1.98;;;7.50;83.40;;;;;;5054512;28;20092;-74
2021/01/23 11:51:39;;;;;;;2.38;1.38;;;7.40;83.40;;;;;;5052542;28;20025;-75
2021/01/23 11:54:05;;;;;;;4.57;1.60;;;7.40;83.50;;;;;;5054632;28;20077;-74
2021/01/23 11:56:30;;;;;;;2.53;1.35;;;7.40;83.70;;;;;;5054130;28;20496;-74
2021/01/23 11:58:56;;;;;;;3.55;1.75;;;7.30;83.80;;;;;;5053790;28;20043;-74
2021/01/23 12:01:22;;;;;;;5.28;1.90;;;7.30;84.10;;;;;;5054480;28;20021;-74
2021/01/23 12:03:47;;;;;;;5.10;2.20;;;7.30;84.20;;;;;;5053680;28;20021;-74
2021/01/23 12:06:13;;;;;;;4.22;2.40;;;7.20;84.20;;;;;;5054197;28;20134;-74
2021/01/23 12:08:38;;;;;;;4.63;2.17;;;7.20;84.30;;;;;;5052743;28;20582;-75
2021/01/23 12:11:04;;;;;;;3.78;1.60;;;7.20;84.20;;;;;;5053851;28;20029;-74
2021/01/23 12:13:30;;;;;;;3.20;1.75;;;7.20;84.30;;;;;;5052827;28;20025;-74
2021/01/23 12:15:55;;;;;;;4.85;1.70;;;7.20;84.20;;;;;;5053376;28;20025;-74
2021/01/23 12:18:21;;;;;;;4.03;1.75;;;7.20;84.10;;;;;;5052712;28;20116;-75
2021/01/23 12:20:48;;;;;;;2.92;1.65;;;7.20;84.10;;;;;;5053397;28;20483;-75
2021/01/23 12:23:14;;;;;;;4.53;2.08;;;7.20;84.10;;;;;;5054026;28;20032;-74
2021/01/23 12:25:40;;;;;;;2.63;1.55;;;7.20;84.10;;;;;;5052023;28;20124;-76
2021/01/23 12:28:05;;;;;;;3.35;1.85;;;7.20;84.00;;;;;;5054514;28;20475;-75
2021/01/23 12:30:31;;;;;;;3.40;2.17;;;7.20;83.90;;;;;;5056313;28;20024;-74
2021/01/23 12:32:57;;;;;;;4.95;1.88;;;7.10;83.80;;;;;;5071890;28;20069;-74
2021/01/23 12:35:22;;;;;;;3.05;1.92;;;7.20;84.00;;;;;;5071030;28;20024;-74
2021/01/23 12:37:48;;;;;;;4.75;1.88;;;7.10;83.60;;;;;;5035214;28;20039;-76
2021/01/23 12:40:15;;;;;;;6.97;2.53;;;7.10;83.90;;;;;;5035725;28;20384;-74
2021/01/23 12:42:41;;;;;;;5.30;1.80;;;7.20;83.30;;;;;;5035692;28;20119;-74
2021/01/23 12:45:09;;;;;;;4.70;2.35;;;7.20;83.40;;;;;;5053640;28;20143;-75
2021/01/23 12:47:35;;;;;;;7.50;2.05;;;7.30;83.10;;;;;;5053192;28;20021;-75
2021/01/23 12:50:02;;;;;;;3.03;2.03;;;7.30;82.70;;;;;;5052907;28;20380;-75
2021/01/23 12:52:28;;;;;;;5.35;2.05;;;7.30;82.20;;;;;;5053320;28;20043;-75
2021/01/23 12:54:53;;;;;;;7.30;1.85;;;7.40;82.40;;;;;;5052866;28;20456;-75
2021/01/23 12:57:19;;;;;;;6.13;1.80;;;7.50;82.40;;;;;;5053413;28;20033;-75
2021/01/23 12:59:44;;;;;;;4.10;1.60;;;7.60;82.30;;;;;;5034774;28;20025;-75
2021/01/23 13:02:10;;;;;;;3.05;2.03;;;7.60;82.30;;;;;;5053344;28;20040;-75